Time;durP1;ratioP1;P1;durP2;ratioP2;P2;SDS_P1;SDS_P2;PMS_P1;PMS_P2;Temp;Humidity;BMP_temperature;BMP_pressure;BME280_temperature;BME280_humidity;BME280_pressure;Samples;Min_cycle;Max_cycle;Signal;HPM_P1;HPM_P2
2023/06/18 00:00:37;;;;;;;1.60;1.50;;;;;;;13.97;100.00;97653.28;1708155;75;681159;-72
2023/06/18 00:03:07;;;;;;;1.35;1.25;;;;;;;13.93;100.00;97647.28;1700273;75;739320;-72
2023/06/18 00:05:37;;;;;;;1.40;1.30;;;;;;;13.90;100.00;97650.28;1708738;75;678265;-69
2023/06/18 00:08:10;;;;;;;1.70;1.50;;;;;;;13.90;100.00;97651.00;1700912;75;750808;-70
2023/06/18 00:10:41;;;;;;;1.65;1.40;;;;;;;13.83;100.00;97648.78;1708373;75;688730;-70
2023/06/18 00:13:11;;;;;;;1.70;1.40;;;;;;;13.78;100.00;97647.53;1699561;75;776802;-72
2023/06/18 00:15:41;;;;;;;1.40;1.30;;;;;;;13.77;100.00;97646.00;1708715;75;675017;-70
2023/06/18 00:18:12;;;;;;;1.70;1.60;;;;;;;13.70;100.00;97646.47;1700758;75;749084;-70
2023/06/18 00:20:42;;;;;;;3.35;3.05;;;;;;;13.59;100.00;97649.22;1709687;75;680130;-73
2023/06/18 00:23:15;;;;;;;2.50;2.30;;;;;;;13.67;100.00;97644.72;1700695;75;735525;-70
2023/06/18 00:25:46;;;;;;;3.50;2.90;;;;;;;13.43;100.00;97650.66;1709925;75;669923;-69
2023/06/18 00:28:16;;;;;;;3.40;3.10;;;;;;;13.55;100.00;97643.22;1700771;75;736876;-70
2023/06/18 00:30:47;;;;;;;2.60;2.20;;;;;;;13.56;100.00;97642.69;1709007;75;673907;-73
2023/06/18 00:33:17;;;;;;;1.80;1.65;;;;;;;13.53;100.00;97653.94;1700899;75;744505;-73
2023/06/18 00:35:48;;;;;;;1.90;1.70;;;;;;;13.47;100.00;97648.44;1709693;75;670437;-70
2023/06/18 00:38:20;;;;;;;1.75;1.65;;;;;;;13.43;100.00;97637.66;1699325;75;750621;-68
2023/06/18 00:40:51;;;;;;;2.00;1.70;;;;;;;13.44;100.00;97638.41;1708420;75;676035;-71
2023/06/18 00:43:21;;;;;;;1.45;1.35;;;;;;;13.46;100.00;97635.91;1699550;75;780411;-72
2023/06/18 00:45:53;;;;;;;1.60;1.40;;;;;;;13.37;100.00;97644.38;1709623;75;678108;-71
2023/06/18 00:48:25;;;;;;;1.70;1.60;;;;;;;13.38;100.00;97640.41;1700617;75;756338;-74
2023/06/18 00:50:56;;;;;;;1.50;1.40;;;;;;;13.34;100.00;97643.38;1707991;75;686273;-69
2023/06/18 00:53:30;;;;;;;1.65;1.20;;;;;;;13.34;100.00;97637.88;1700064;75;752009;-70
2023/06/18 00:56:00;;;;;;;1.70;1.40;;;;;;;13.26;100.00;97634.09;1709540;75;679975;-70
2023/06/18 00:58:31;;;;;;;1.40;1.30;;;;;;;13.27;100.00;97640.34;1700185;75;758819;-69
2023/06/18 01:01:02;;;;;;;1.30;1.20;;;;;;;13.20;100.00;97641.56;1707912;75;683227;-70
2023/06/18 01:03:32;;;;;;;1.30;1.20;;;;;;;13.14;100.00;97638.78;1699989;75;744744;-70
2023/06/18 01:06:04;;;;;;;2.80;1.50;;;;;;;13.09;100.00;97625.78;1707270;75;666796;-72
2023/06/18 01:08:37;;;;;;;1.75;1.60;;;;;;;13.11;100.00;97630.78;1699514;75;759032;-69
2023/06/18 01:11:09;;;;;;;1.40;1.20;;;;;;;13.09;100.00;97625.78;1708073;75;675930;-72
2023/06/18 01:13:41;;;;;;;1.40;1.30;;;;;;;13.07;100.00;97624.78;1700427;75;752622;-70
2023/06/18 01:16:13;;;;;;;1.90;1.70;;;;;;;13.00;100.00;97626.72;1709263;75;688751;-68
2023/06/18 01:18:50;;;;;;;1.60;1.50;;;;;;;12.97;100.00;97616.72;1700682;75;738388;-72
2023/06/18 01:21:24;;;;;;;1.90;1.70;;;;;;;12.97;100.00;97613.25;1700887;75;678903;-69
2023/06/18 01:24:05;;;;;;;1.60;1.50;;;;;;;13.00;100.00;97621.22;1711049;75;676745;-68
2023/06/18 01:26:38;;;;;;;1.55;1.45;;;;;;;12.92;100.00;97619.47;1703028;75;679197;-70
2023/06/18 01:29:10;;;;;;;1.40;1.30;;;;;;;12.89;100.00;97618.44;1710970;75;672445;-69
2023/06/18 01:31:40;;;;;;;1.70;1.30;;;;;;;12.91;100.00;97620.69;1701647;75;678938;-69
2023/06/18 01:34:12;;;;;;;1.50;1.40;;;;;;;12.88;100.00;97610.69;1708191;75;679348;-69
2023/06/18 01:36:56;;;;;;;1.45;1.30;;;;;;;12.86;100.00;97613.91;1701487;75;674332;-69
2023/06/18 01:39:41;;;;;;;3.35;1.40;;;;;;;12.82;100.00;97607.94;1701612;75;671364;-70
2023/06/18 01:42:17;;;;;;;2.00;1.80;;;;;;;12.75;100.00;97616.63;1709417;75;684638;-69
2023/06/18 01:44:55;;;;;;;1.45;1.30;;;;;;;12.75;100.00;97617.38;1700643;75;747916;-69
2023/06/18 01:47:28;;;;;;;2.20;2.00;;;;;;;12.58;100.00;97617.28;1701015;75;668711;-71
2023/06/18 01:50:01;;;;;;;2.50;2.05;;;;;;;12.54;100.00;97621.50;1707407;75;708822;-71
2023/06/18 01:52:36;;;;;;;2.05;1.65;;;;;;;12.56;100.00;97619.00;1701127;75;677472;-69
2023/06/18 01:55:11;;;;;;;1.65;1.55;;;;;;;12.61;100.00;97617.53;1709243;75;677044;-69
2023/06/18 01:57:41;;;;;;;2.20;1.65;;;;;;;12.57;100.00;97615.00;1700085;75;686735;-70
2023/06/18 02:00:14;;;;;;;2.00;1.70;;;;;;;12.56;100.00;97621.75;1709049;75;674757;-69
2023/06/18 02:02:44;;;;;;;1.60;1.50;;;;;;;12.55;100.00;97620.25;1701780;75;672317;-71
2023/06/18 02:05:14;;;;;;;1.50;1.40;;;;;;;12.48;100.00;97628.94;1709547;75;674410;-68
2023/06/18 02:07:44;;;;;;;1.65;1.30;;;;;;;12.43;100.00;97622.16;1701037;75;681043;-68
2023/06/18 02:10:17;;;;;;;1.90;1.60;;;;;;;12.39;100.00;97624.41;1708782;75;675288;-68
2023/06/18 02:12:48;;;;;;;1.30;1.20;;;;;;;12.39;100.00;97623.63;1700313;75;753223;-70
2023/06/18 02:15:18;;;;;;;2.75;1.30;;;;;;;12.32;100.00;97625.59;1708081;75;700709;-72
2023/06/18 02:17:49;;;;;;;1.50;1.40;;;;;;;12.29;100.00;97640.28;1699551;75;756986;-69
2023/06/18 02:20:19;;;;;;;1.70;1.50;;;;;;;12.24;100.00;97634.75;1708482;75;675272;-69
2023/06/18 02:22:50;;;;;;;1.70;1.60;;;;;;;12.23;100.00;97627.75;1699730;75;749354;-70
2023/06/18 02:25:28;;;;;;;1.65;1.55;;;;;;;12.16;100.00;97631.69;1707215;75;723170;-74
2023/06/18 02:27:59;;;;;;;2.10;1.90;;;;;;;12.11;100.00;97632.41;1698771;75;737191;-69
2023/06/18 02:30:31;;;;;;;2.45;2.10;;;;;;;12.07;100.00;97632.63;1707510;75;676825;-70
2023/06/18 02:33:02;;;;;;;2.05;1.85;;;;;;;12.08;100.00;97633.38;1699924;75;742546;-69
2023/06/18 02:35:33;;;;;;;1.85;1.65;;;;;;;12.06;100.00;97633.13;1709584;75;678039;-69
2023/06/18 02:38:03;;;;;;;1.90;1.70;;;;;;;12.01;100.00;97636.56;1700199;75;750477;-69
2023/06/18 02:40:36;;;;;;;2.10;1.90;;;;;;;11.99;100.00;97633.56;1707880;75;686299;-69
2023/06/18 02:43:08;;;;;;;1.85;1.70;;;;;;;11.96;100.00;97640.03;1700534;75;739079;-69
2023/06/18 02:45:38;;;;;;;1.70;1.50;;;;;;;11.96;100.00;97645.50;1709769;75;676513;-68
2023/06/18 02:48:09;;;;;;;1.65;1.55;;;;;;;11.93;100.00;97639.75;1700727;75;750894;-70
2023/06/18 02:50:39;;;;;;;1.70;1.60;;;;;;;11.91;100.00;97646.97;1707803;75;672467;-69
2023/06/18 02:53:09;;;;;;;2.40;1.65;;;;;;;11.87;100.00;97638.19;1700932;75;750781;-72
2023/06/18 02:55:42;;;;;;;1.90;1.80;;;;;;;11.86;100.00;97642.91;1709528;75;683923;-71
2023/06/18 02:58:28;;;;;;;1.55;1.45;;;;;;;11.89;100.00;97647.44;1700065;75;750403;-70
2023/06/18 03:00:59;;;;;;;1.50;1.40;;;;;;;11.84;100.00;97648.09;1700755;75;680298;-69
2023/06/18 03:03:29;;;;;;;1.40;1.30;;;;;;;11.85;100.00;97640.63;1709074;75;677514;-71
2023/06/18 03:06:00;;;;;;;1.90;1.70;;;;;;;11.80;100.00;97642.06;1701172;75;713261;-71
2023/06/18 03:08:30;;;;;;;2.00;1.70;;;;;;;11.75;100.00;97642.78;1708991;75;679361;-69
2023/06/18 03:11:03;;;;;;;1.60;1.50;;;;;;;11.81;100.00;97645.56;1700329;75;675295;-68
2023/06/18 03:13:33;;;;;;;2.50;1.70;;;;;;;11.77;100.00;97643.06;1709699;75;676635;-69
2023/06/18 03:16:04;;;;;;;1.60;1.50;;;;;;;11.72;100.00;97638.28;1701175;75;682283;-69
2023/06/18 03:18:34;;;;;;;1.90;1.70;;;;;;;11.74;100.00;97641.28;1709153;75;672560;-71
2023/06/18 03:21:04;;;;;;;1.60;1.50;;;;;;;11.77;100.00;97642.31;1700826;75;675144;-69
2023/06/18 03:23:34;;;;;;;1.45;1.30;;;;;;;11.78;100.00;97639.06;1708287;75;671769;-69
2023/06/18 03:26:07;;;;;;;1.70;1.60;;;;;;;11.77;100.00;97648.53;1701757;75;691707;-71
2023/06/18 03:28:38;;;;;;;1.70;1.55;;;;;;;11.78;100.00;97644.53;1709651;75;688297;-70
2023/06/18 03:31:08;;;;;;;1.85;1.75;;;;;;;11.76;100.00;97643.53;1700015;75;725676;-68
2023/06/18 03:33:38;;;;;;;1.60;1.50;;;;;;;11.78;100.00;97646.53;1709183;75;682633;-70
2023/06/18 03:36:08;;;;;;;1.50;1.40;;;;;;;11.75;100.00;97647.50;1701666;75;678833;-69
2023/06/18 03:38:39;;;;;;;1.90;1.60;;;;;;;11.75;100.00;97650.25;1709356;75;670994;-69
2023/06/18 03:41:11;;;;;;;1.45;1.35;;;;;;;11.79;100.00;97648.06;1701268;75;672357;-69
2023/06/18 03:43:42;;;;;;;2.55;1.90;;;;;;;11.77;100.00;97653.28;1710047;75;678570;-69
2023/06/18 03:46:12;;;;;;;1.60;1.50;;;;;;;11.75;100.00;97642.78;1700099;75;673331;-68
2023/06/18 03:48:43;;;;;;;1.80;1.70;;;;;;;11.81;100.00;97648.31;1709651;75;674946;-72
2023/06/18 03:51:13;;;;;;;1.40;1.30;;;;;;;11.83;100.00;97657.56;1699933;75;748575;-72
2023/06/18 03:53:43;;;;;;;1.55;1.45;;;;;;;11.82;100.00;97656.06;1708910;75;676827;-70
2023/06/18 03:56:16;;;;;;;1.70;1.55;;;;;;;11.85;100.00;97652.34;1699793;75;755079;-71
2023/06/18 03:58:48;;;;;;;2.35;2.10;;;;;;;11.83;100.00;97665.03;1709286;75;676340;-69
2023/06/18 04:01:18;;;;;;;2.30;2.10;;;;;;;11.90;100.00;97659.91;1699480;75;751790;-70
2023/06/18 04:03:48;;;;;;;2.00;1.80;;;;;;;11.92;100.00;97659.41;1709694;75;670809;-70
2023/06/18 04:06:18;;;;;;;1.95;1.80;;;;;;;11.92;100.00;97660.16;1700004;75;749793;-70
2023/06/18 04:08:49;;;;;;;2.10;1.90;;;;;;;11.97;100.00;97664.22;1707927;75;683564;-69
2023/06/18 04:11:21;;;;;;;2.10;1.80;;;;;;;12.02;100.00;97663.50;1699274;75;750543;-71
2023/06/18 04:13:52;;;;;;;2.00;1.80;;;;;;;12.10;100.00;97656.34;1709996;75;667106;-69
2023/06/18 04:16:22;;;;;;;2.05;1.75;;;;;;;12.13;100.00;97665.59;1699347;75;749984;-70
2023/06/18 04:18:52;;;;;;;1.90;1.70;;;;;;;12.19;100.00;97660.16;1709750;75;670649;-69
2023/06/18 04:21:22;;;;;;;2.10;1.90;;;;;;;12.22;100.00;97657.22;1700654;75;749216;-73
2023/06/18 04:23:52;;;;;;;1.65;1.55;;;;;;;12.28;100.00;97657.25;1709108;75;674901;-70
2023/06/18 04:26:26;;;;;;;1.95;1.50;;;;;;;12.32;100.00;97655.78;1700845;75;738217;-70
2023/06/18 04:28:56;;;;;;;1.65;1.50;;;;;;;12.34;100.00;97653.31;1709408;75;678473;-68
2023/06/18 04:31:26;;;;;;;1.50;1.40;;;;;;;12.46;100.00;97654.16;1699367;75;750050;-68
2023/06/18 04:33:56;;;;;;;1.65;1.50;;;;;;;12.52;100.00;97645.94;1709415;75;676031;-69
2023/06/18 04:36:26;;;;;;;2.00;1.70;;;;;;;12.57;100.00;97647.97;1701046;75;735726;-69
2023/06/18 04:38:57;;;;;;;1.90;1.60;;;;;;;12.65;100.00;97654.53;1708797;75;680251;-70
2023/06/18 04:41:30;;;;;;;3.15;1.80;;;;;;;12.70;100.00;97656.56;1699162;75;744193;-70
2023/06/18 04:44:00;;;;;;;2.40;2.10;;;;;;;12.82;100.00;97648.34;1708799;75;725558;-68
2023/06/18 04:46:30;;;;;;;2.20;2.00;;;;;;;12.87;100.00;97648.41;1700256;75;732637;-70
2023/06/18 04:49:00;;;;;;;2.30;2.10;;;;;;;13.00;100.00;97645.97;1708973;75;680587;-70
2023/06/18 04:51:30;;;;;;;2.65;2.40;;;;;;;13.08;100.00;97640.00;1699871;75;722042;-69
2023/06/18 04:54:00;;;;;;;2.90;2.60;;;;;;;13.19;100.00;97643.56;1707998;75;692652;-72
2023/06/18 04:56:33;;;;;;;8.10;7.20;;;;;;;13.27;100.00;97651.31;1700468;75;757690;-70
2023/06/18 04:59:03;;;;;;;7.90;7.10;;;;;;;13.41;100.00;97647.66;1708643;75;672294;-69
2023/06/18 05:01:33;;;;;;;7.10;6.20;;;;;;;13.74;100.00;97654.50;1698469;75;751626;-69
2023/06/18 05:04:04;;;;;;;13.35;11.95;;;;;;;13.98;100.00;97654.06;1708074;75;681025;-70
2023/06/18 05:06:34;;;;;;;9.60;8.15;;;;;;;14.16;100.00;97650.78;1700369;75;741301;-71
2023/06/18 05:09:04;;;;;;;8.45;7.55;;;;;;;14.38;100.00;97646.53;1708283;75;674594;-71
2023/06/18 05:11:37;;;;;;;9.00;6.95;;;;;;;14.49;100.00;97644.53;1698513;75;725304;-70
2023/06/18 05:14:08;;;;;;;6.05;5.45;;;;;;;14.51;100.00;97654.31;1709196;75;673928;-68
2023/06/18 05:16:38;;;;;;;10.95;6.05;;;;;;;14.64;100.00;97655.31;1699912;75;749353;-72
2023/06/18 05:19:09;;;;;;;6.85;6.15;;;;;;;14.66;100.00;97663.81;1707569;75;665887;-73
2023/06/18 05:21:39;;;;;;;6.85;5.80;;;;;;;14.83;100.00;97654.78;1699822;75;746887;-71
2023/06/18 05:24:10;;;;;;;7.10;6.30;;;;;;;14.85;100.00;97660.53;1709755;75;667021;-70
2023/06/18 05:26:42;;;;;;;7.00;6.30;;;;;;;14.97;100.00;97662.00;1700066;75;745985;-72
2023/06/18 05:29:13;;;;;;;6.40;5.70;;;;;;;15.05;100.00;97657.47;1710637;75;668935;-69
2023/06/18 05:31:43;;;;;;;6.90;6.20;;;;;;;15.19;100.00;97657.69;1701545;75;721931;-69
2023/06/18 05:34:13;;;;;;;7.40;6.15;;;;;;;15.28;100.00;97655.38;1709255;75;677008;-69
2023/06/18 05:36:43;;;;;;;8.05;6.60;;;;;;;15.30;100.00;97657.66;1701629;75;760702;-68
2023/06/18 05:39:14;;;;;;;8.10;5.80;;;;;;;15.46;100.00;97654.03;1709189;75;672405;-69
2023/06/18 05:41:48;;;;;;;6.65;5.90;;;;;;;15.66;100.00;97655.72;1699291;75;727142;-69
2023/06/18 05:44:18;;;;;;;6.30;5.40;;;;;;;15.68;100.00;97664.25;1706229;75;671128;-70
2023/06/18 05:46:48;;;;;;;7.70;6.90;;;;;;;15.85;100.00;97661.41;1700430;75;749399;-70
2023/06/18 05:49:19;;;;;;;9.50;7.40;;;;;;;15.91;100.00;97662.09;1708550;75;671088;-69
2023/06/18 05:51:49;;;;;;;7.25;6.00;;;;;;;16.04;100.00;97660.78;1699558;75;753095;-72
2023/06/18 05:54:19;;;;;;;6.10;5.05;;;;;;;16.10;100.00;97665.00;1708869;75;679818;-69
2023/06/18 05:56:52;;;;;;;5.95;5.00;;;;;;;16.24;100.00;97663.16;1700447;75;754027;-71
2023/06/18 05:59:22;;;;;;;6.10;5.40;;;;;;;16.32;99.56;97655.78;1708152;75;670509;-69
2023/06/18 06:01:53;;;;;;;6.40;5.35;;;;;;;16.53;99.77;97658.13;1699746;75;740122;-71
2023/06/18 06:04:24;;;;;;;6.45;5.20;;;;;;;16.66;95.47;97663.78;1709047;75;670524;-71
2023/06/18 06:06:54;;;;;;;7.25;5.45;;;;;;;16.67;94.66;97654.22;1699648;75;724399;-71
2023/06/18 06:09:24;;;;;;;5.10;4.30;;;;;;;16.81;92.71;97652.34;1708891;75;685311;-70
2023/06/18 06:11:57;;;;;;;5.55;4.20;;;;;;;16.94;93.33;97649.72;1699076;75;733577;-70
2023/06/18 06:14:28;;;;;;;5.90;5.20;;;;;;;16.92;91.01;97660.53;1708138;75;690111;-70
2023/06/18 06:16:58;;;;;;;5.35;4.35;;;;;;;17.12;88.78;97653.78;1700343;75;741924;-72
2023/06/18 06:19:29;;;;;;;4.50;4.00;;;;;;;17.26;88.10;97651.84;1709013;75;673996;-71
2023/06/18 06:21:59;;;;;;;4.25;3.60;;;;;;;17.36;86.36;97663.31;1698810;75;756950;-70
2023/06/18 06:24:29;;;;;;;6.75;6.05;;;;;;;17.48;87.13;97659.13;1707743;75;706263;-69
2023/06/18 06:27:02;;;;;;;7.30;6.55;;;;;;;17.67;85.44;97667.44;1699388;75;757745;-71
2023/06/18 06:29:32;;;;;;;7.30;5.65;;;;;;;17.75;82.33;97668.34;1709171;75;673457;-72
2023/06/18 06:32:03;;;;;;;10.15;8.55;;;;;;;17.84;85.96;97672.78;1699515;75;736500;-73
2023/06/18 06:34:33;;;;;;;7.50;6.30;;;;;;;17.91;82.53;97669.41;1708529;75;673448;-70
2023/06/18 06:37:06;;;;;;;6.65;5.10;;;;;;;18.05;77.93;97670.22;1699366;75;755893;-71
2023/06/18 06:39:37;;;;;;;5.15;4.40;;;;;;;18.15;75.80;97673.34;1708197;75;687910;-69
2023/06/18 06:42:10;;;;;;;5.00;4.20;;;;;;;18.28;74.33;97679.69;1699301;75;761955;-70
2023/06/18 06:44:41;;;;;;;4.00;3.40;;;;;;;18.37;73.34;97669.47;1708355;75;668801;-70
2023/06/18 06:47:11;;;;;;;4.15;3.65;;;;;;;18.54;73.56;97664.38;1698517;75;752630;-71
2023/06/18 06:49:41;;;;;;;5.60;4.10;;;;;;;18.61;73.05;97671.34;1708954;75;675822;-73
2023/06/18 06:52:11;;;;;;;4.50;3.70;;;;;;;18.77;74.02;97667.56;1699232;75;770717;-70
2023/06/18 06:54:42;;;;;;;3.70;3.40;;;;;;;18.96;72.13;97666.72;1709455;75;673257;-70
2023/06/18 06:57:15;;;;;;;4.65;4.05;;;;;;;19.07;69.82;97667.28;1699986;75;735806;-69
2023/06/18 06:59:45;;;;;;;5.05;3.95;;;;;;;19.18;69.70;97668.34;1707636;75;686308;-69
2023/06/18 07:02:15;;;;;;;5.55;4.10;;;;;;;19.29;67.78;97660.53;1699841;75;743707;-71
2023/06/18 07:04:47;;;;;;;5.70;3.80;;;;;;;19.35;67.74;97663.94;1708345;75;701268;-72
2023/06/18 07:07:18;;;;;;;4.95;4.25;;;;;;;19.47;66.09;97664.44;1700340;75;739208;-75
2023/06/18 07:09:48;;;;;;;4.70;4.20;;;;;;;19.62;66.01;97674.25;1708667;75;670470;-68
2023/06/18 07:12:21;;;;;;;4.00;3.60;;;;;;;19.77;65.83;97664.09;1699702;75;722705;-70
2023/06/18 07:14:51;;;;;;;4.40;3.50;;;;;;;19.88;65.01;97657.53;1708725;75;682194;-69
2023/06/18 07:17:21;;;;;;;4.20;3.60;;;;;;;19.99;63.87;97665.63;1700183;75;758810;-72
2023/06/18 07:19:52;;;;;;;4.85;3.70;;;;;;;20.12;65.08;97664.06;1708108;75;676558;-70
2023/06/18 07:22:22;;;;;;;4.55;3.80;;;;;;;20.30;64.42;97654.81;1700584;75;744240;-70
2023/06/18 07:24:53;;;;;;;5.60;4.45;;;;;;;20.34;63.86;97660.00;1709256;75;681159;-71
2023/06/18 07:27:27;;;;;;;5.65;4.70;;;;;;;20.52;62.53;97661.09;1699186;75;831822;-70
2023/06/18 07:29:57;;;;;;;6.55;5.20;;;;;;;20.69;62.18;97669.06;1709589;75;670870;-72
2023/06/18 07:32:28;;;;;;;6.05;4.90;;;;;;;20.45;62.30;97651.41;1700726;75;746916;-70
2023/06/18 07:34:58;;;;;;;5.80;5.05;;;;;;;20.68;61.53;97657.16;1709464;75;699178;-69
2023/06/18 07:37:28;;;;;;;5.05;4.00;;;;;;;20.79;61.85;97659.66;1701043;75;742069;-72
2023/06/18 07:39:58;;;;;;;4.20;3.40;;;;;;;21.08;61.53;97661.72;1709560;75;675754;-70
2023/06/18 07:42:31;;;;;;;5.75;4.65;;;;;;;21.17;61.86;97666.78;1701097;75;760295;-70
2023/06/18 07:45:01;;;;;;;5.10;4.50;;;;;;;21.39;60.73;97662.63;1709102;75;679161;-72
2023/06/18 07:47:31;;;;;;;4.70;4.00;;;;;;;21.56;60.73;97648.97;1701117;75;738606;-71
2023/06/18 07:50:03;;;;;;;4.95;4.30;;;;;;;21.58;60.68;97654.72;1709120;75;680877;-73
2023/06/18 07:52:33;;;;;;;4.95;4.25;;;;;;;21.57;59.22;97655.28;1701074;75;748478;-73
2023/06/18 07:55:03;;;;;;;5.85;4.60;;;;;;;21.72;59.48;97646.22;1709866;75;673082;-69
2023/06/18 07:57:36;;;;;;;5.70;4.45;;;;;;;21.87;58.15;97654.63;1701321;75;740392;-70
2023/06/18 08:00:07;;;;;;;5.40;4.10;;;;;;;22.00;58.40;97645.38;1709551;75;677793;-73
2023/06/18 08:02:38;;;;;;;5.40;4.30;;;;;;;22.19;57.57;97642.97;1701593;75;739127;-70
2023/06/18 08:05:10;;;;;;;9.10;6.35;;;;;;;22.30;56.03;97644.72;1710277;75;669616;-71
2023/06/18 08:07:40;;;;;;;5.90;4.55;;;;;;;22.27;54.30;97646.56;1701254;75;748072;-72
2023/06/18 08:10:12;;;;;;;5.20;4.50;;;;;;;22.43;55.80;97643.78;1709569;75;676913;-70
2023/06/18 08:12:45;;;;;;;5.60;4.95;;;;;;;22.47;54.61;97639.31;1701095;75;748050;-72
2023/06/18 08:15:15;;;;;;;5.20;3.90;;;;;;;22.34;53.98;97642.28;1709035;75;678659;-72
2023/06/18 08:17:45;;;;;;;5.30;4.70;;;;;;;22.36;54.69;97642.47;1698261;75;918393;-71
2023/06/18 08:20:16;;;;;;;5.20;3.95;;;;;;;22.88;56.27;97633.88;1709479;75;676277;-71
2023/06/18 08:22:50;;;;;;;4.60;3.95;;;;;;;23.11;56.91;97626.19;1701102;75;742565;-70
2023/06/18 08:25:20;;;;;;;5.20;4.30;;;;;;;23.09;57.51;97633.66;1710276;75;674321;-70
2023/06/18 08:27:54;;;;;;;4.55;3.90;;;;;;;23.10;58.10;97633.09;1700741;75;749034;-71
2023/06/18 08:30:25;;;;;;;4.20;3.70;;;;;;;23.39;57.65;97632.81;1709132;75;700266;-70
2023/06/18 08:32:56;;;;;;;5.50;4.25;;;;;;;23.29;54.99;97631.94;1701116;75;751102;-72
2023/06/18 08:35:26;;;;;;;4.20;3.65;;;;;;;23.43;56.28;97624.03;1709536;75;669615;-71
2023/06/18 08:37:57;;;;;;;5.10;4.40;;;;;;;23.53;56.39;97624.94;1700444;75;759301;-71
2023/06/18 08:40:31;;;;;;;5.60;4.50;;;;;;;23.71;56.45;97625.78;1709494;75;673747;-70
2023/06/18 08:43:09;;;;;;;5.55;4.55;;;;;;;23.85;56.11;97624.25;1700421;75;749159;-72
2023/06/18 08:45:39;;;;;;;;;;;;;;;23.85;54.33;97615.84;1701681;75;675632;-71
2023/06/18 08:48:12;;;;;;;4.50;3.90;;;;;;;23.96;53.10;97620.28;1709820;75;677399;-71
2023/06/18 08:50:43;;;;;;;4.90;4.20;;;;;;;24.04;54.12;97618.16;1700495;75;680747;-72
2023/06/18 08:53:25;;;;;;;5.15;3.70;;;;;;;24.01;52.65;97616.50;1710120;75;674340;-70
2023/06/18 08:55:56;;;;;;;5.20;4.30;;;;;;;24.02;51.35;97618.72;1700867;75;684648;-71
2023/06/18 08:58:32;;;;;;;4.60;4.10;;;;;;;24.27;51.22;97614.44;1709893;75;678780;-70
2023/06/18 09:01:02;;;;;;;5.20;4.55;;;;;;;24.34;51.10;97610.84;1700404;75;737856;-74
2023/06/18 09:03:32;;;;;;;5.00;4.45;;;;;;;24.41;51.02;97610.81;1708732;75;685472;-73
2023/06/18 09:06:03;;;;;;;9.10;4.45;;;;;;;24.44;52.35;97598.47;1701135;75;745033;-73
2023/06/18 09:08:34;;;;;;;5.00;4.50;;;;;;;24.66;52.15;97604.47;1708675;75;673570;-72
2023/06/18 09:11:05;;;;;;;5.05;4.10;;;;;;;24.63;51.37;97606.34;1700223;75;735156;-74
2023/06/18 09:13:43;;;;;;;5.60;4.40;;;;;;;24.82;51.06;97603.00;1710194;75;682284;-73
2023/06/18 09:16:14;;;;;;;4.15;3.75;;;;;;;24.85;51.40;97598.31;1701550;75;745633;-72
2023/06/18 09:18:45;;;;;;;4.75;4.20;;;;;;;25.06;51.72;97601.44;1711103;75;679038;-71
2023/06/18 09:21:37;;;;;;;5.55;4.30;;;;;;;25.21;51.84;97599.81;1700781;75;744959;-71
2023/06/18 09:24:10;;;;;;;5.25;4.60;;;;;;;25.34;48.99;97601.50;1702452;75;679850;-74
2023/06/18 09:26:40;;;;;;;4.90;4.20;;;;;;;25.45;50.10;97595.41;1709725;75;677015;-72
2023/06/18 09:29:15;;;;;;;5.80;4.60;;;;;;;25.58;48.25;97605.50;1701978;75;686366;-71
2023/06/18 09:31:47;;;;;;;5.90;3.90;;;;;;;25.73;49.43;97597.59;1709495;75;673974;-72
2023/06/18 09:34:19;;;;;;;4.80;4.15;;;;;;;25.71;49.63;97603.09;1700985;75;740807;-72
2023/06/18 09:36:53;;;;;;;4.70;4.10;;;;;;;25.54;48.73;97596.75;1709784;75;682358;-72
2023/06/18 09:39:26;;;;;;;4.55;4.05;;;;;;;25.87;48.41;97602.88;1700229;75;765154;-72
2023/06/18 09:41:58;;;;;;;5.15;3.65;;;;;;;25.92;47.87;97593.44;1709564;75;672941;-73
2023/06/18 09:44:31;;;;;;;4.95;4.45;;;;;;;26.02;47.88;97593.50;1700053;75;744335;-73
2023/06/18 09:47:03;;;;;;;5.15;4.00;;;;;;;26.04;48.33;97593.66;1709718;75;671328;-71
2023/06/18 09:49:33;;;;;;;4.35;3.80;;;;;;;25.95;45.60;97597.16;1699437;75;747262;-74
2023/06/18 09:52:04;;;;;;;4.90;4.00;;;;;;;26.23;47.51;97585.31;1709169;75;674950;-74
2023/06/18 09:54:43;;;;;;;5.05;3.80;;;;;;;26.49;47.63;97586.56;1700721;75;752737;-73
2023/06/18 09:57:15;;;;;;;5.65;4.35;;;;;;;26.34;46.74;97584.75;1701490;75;699192;-70
2023/06/18 09:59:48;;;;;;;4.20;3.80;;;;;;;26.47;46.73;97583.59;1709641;75;674068;-73
2023/06/18 10:02:27;;;;;;;4.75;4.00;;;;;;;26.34;46.13;97589.63;1702359;75;678285;-74
2023/06/18 10:04:58;;;;;;;4.20;3.40;;;;;;;26.83;45.64;97582.06;1709471;75;685233;-73
2023/06/18 10:07:28;;;;;;;4.80;4.00;;;;;;;26.81;43.27;97586.78;1701208;75;684030;-74
2023/06/18 10:09:59;;;;;;;4.60;4.10;;;;;;;26.81;41.32;97586.78;1708942;75;674475;-72
2023/06/18 10:12:29;;;;;;;5.00;3.60;;;;;;;26.83;43.58;97586.94;1702341;75;676566;-72
2023/06/18 10:15:02;;;;;;;4.30;3.70;;;;;;;27.19;42.97;97574.84;1709771;75;688971;-74
2023/06/18 10:17:38;;;;;;;4.75;3.95;;;;;;;27.23;42.05;97580.75;1701607;75;674729;-71
2023/06/18 10:20:11;;;;;;;3.85;3.30;;;;;;;27.41;41.79;97576.41;1708684;75;676430;-71
2023/06/18 10:22:48;;;;;;;5.45;4.15;;;;;;;27.19;40.58;97577.66;1666861;75;3521679;-71
2023/06/18 10:25:18;;;;;;;4.80;3.60;;;;;;;27.39;40.77;97567.84;1701324;75;684142;-71
2023/06/18 10:27:49;;;;;;;4.85;3.65;;;;;;;27.73;41.32;97565.25;1710066;75;678297;-72
2023/06/18 10:30:23;;;;;;;6.20;3.40;;;;;;;27.83;43.54;97563.91;1698605;75;909722;-72
2023/06/18 10:32:53;;;;;;;4.45;3.55;;;;;;;27.80;43.65;97567.16;1710011;75;676029;-73
2023/06/18 10:35:25;;;;;;;4.10;3.60;;;;;;;27.65;43.35;97568.22;1703119;75;678929;-72
2023/06/18 10:37:56;;;;;;;4.20;3.60;;;;;;;27.86;43.70;97564.78;1710845;75;677268;-72
2023/06/18 10:40:26;;;;;;;4.90;4.00;;;;;;;27.67;44.04;97559.22;1702192;75;684605;-70
2023/06/18 10:43:07;;;;;;;4.40;3.90;;;;;;;27.91;45.14;97560.91;1712023;75;676143;-73
2023/06/18 10:45:40;;;;;;;6.15;4.20;;;;;;;27.73;43.90;97556.81;1703260;75;675774;-72
2023/06/18 10:48:22;;;;;;;4.80;3.80;;;;;;;27.74;43.00;97555.50;1710708;75;682436;-72
2023/06/18 10:51:15;;;;;;;4.55;4.10;;;;;;;27.58;43.64;97553.00;1701252;75;753980;-72
2023/06/18 10:53:46;;;;;;;5.40;3.80;;;;;;;28.21;44.54;97542.56;1702775;75;677251;-72
2023/06/18 10:56:19;;;;;;;5.60;4.30;;;;;;;28.08;44.38;97548.69;1709809;75;678477;-75
2023/06/18 10:58:49;;;;;;;4.40;3.35;;;;;;;28.16;42.37;97551.31;1702128;75;681601;-74
2023/06/18 11:01:31;;;;;;;4.90;3.50;;;;;;;28.31;41.81;97542.50;1707377;75;679083;-73
2023/06/18 11:04:09;;;;;;;4.20;3.70;;;;;;;28.02;42.17;97542.66;1701948;75;744287;-75
2023/06/18 11:06:39;;;;;;;4.10;3.70;;;;;;;28.17;40.50;97545.09;1702146;75;676482;-72
2023/06/18 11:09:16;;;;;;;4.45;3.85;;;;;;;28.02;41.86;97542.66;1710231;75;673761;-73
2023/06/18 11:11:53;;;;;;;4.20;3.60;;;;;;;28.04;41.89;97546.38;1701508;75;675432;-72
2023/06/18 11:14:29;;;;;;;4.50;4.00;;;;;;;28.22;41.91;97537.66;1710448;75;707576;-75
2023/06/18 11:17:14;;;;;;;4.90;3.80;;;;;;;28.15;40.26;97538.59;1701881;75;684493;-72
2023/06/18 11:19:46;;;;;;;6.80;4.00;;;;;;;28.16;41.98;97534.44;1701213;75;688892;-74
2023/06/18 11:22:16;;;;;;;4.70;3.95;;;;;;;28.39;40.19;97531.78;1709824;75;681353;-74
2023/06/18 11:24:47;;;;;;;3.80;3.20;;;;;;;28.81;38.69;97530.31;1701816;75;694191;-73
2023/06/18 11:27:17;;;;;;;4.15;3.25;;;;;;;29.16;40.58;97529.75;1710606;75;678653;-74
2023/06/18 11:29:48;;;;;;;5.20;4.00;;;;;;;29.04;39.89;97531.75;1700738;75;678781;-75
2023/06/18 11:32:22;;;;;;;4.60;3.60;;;;;;;28.79;38.03;97524.56;1710313;75;679342;-74
2023/06/18 11:34:53;;;;;;;3.80;3.40;;;;;;;28.68;37.98;97522.41;1701527;75;690559;-73
2023/06/18 11:37:27;;;;;;;4.30;3.80;;;;;;;28.92;38.11;97519.72;1710355;75;685817;-72
2023/06/18 11:39:59;;;;;;;4.90;4.00;;;;;;;28.93;37.28;97521.91;1701703;75;688663;-74
2023/06/18 11:42:30;;;;;;;4.00;3.60;;;;;;;28.80;37.33;97520.41;1710138;75;676540;-73